Time;durP1;ratioP1;P1;durP2;ratioP2;P2;SDS_P1;SDS_P2;PMS_P1;PMS_P2;Temp;Humidity;BMP_temperature;BMP_pressure;BME280_temperature;BME280_humidity;BME280_pressure;Samples;Min_cycle;Max_cycle;Signal;HPM_P1;HPM_P2
2022/08/07 00:00:26;;;;;;;4.03;2.20;;;14.40;99.90;;;14.58;100.00;99632.75;5080185;27;130544;-74
2022/08/07 00:02:55;;;;;;;3.67;2.20;;;14.40;99.90;;;14.55;100.00;99647.06;5063756;27;124383;-72
2022/08/07 00:05:25;;;;;;;5.85;2.30;;;14.50;99.90;;;14.48;100.00;99652.28;5065128;27;121135;-74
2022/08/07 00:07:56;;;;;;;6.78;2.38;;;14.40;99.90;;;14.49;100.00;99654.69;5047994;27;129104;-71
2022/08/07 00:10:24;;;;;;;3.53;2.10;;;14.50;99.90;;;14.47;100.00;99656.16;5079936;27;129424;-74
2022/08/07 00:12:53;;;;;;;6.07;2.30;;;14.40;99.90;;;14.52;100.00;99653.22;5068312;27;119816;-75
2022/08/07 00:15:21;;;;;;;4.13;2.03;;;14.50;99.90;;;14.50;100.00;99650.03;5068749;27;118717;-73
2022/08/07 00:17:50;;;;;;;6.00;2.22;;;14.40;99.90;;;14.61;100.00;99645.78;5083343;27;130008;-73
2022/08/07 00:20:18;;;;;;;4.57;2.35;;;14.50;99.90;;;14.60;100.00;99638.72;5083956;27;130310;-72
2022/08/07 00:22:47;;;;;;;4.45;2.40;;;14.40;99.90;;;14.42;100.00;99642.72;5083729;27;120137;-73
2022/08/07 00:25:16;;;;;;;4.90;1.83;;;14.40;99.90;;;14.46;100.00;99640.88;5083764;27;119263;-74
2022/08/07 00:27:45;;;;;;;5.57;2.40;;;14.40;99.90;;;14.45;100.00;99639.31;5082290;27;129702;-74
2022/08/07 00:30:14;;;;;;;5.80;2.67;;;14.40;99.90;;;14.38;100.00;99642.56;5068446;27;128329;-73
2022/08/07 00:32:43;;;;;;;6.55;2.30;;;14.40;99.90;;;14.44;100.00;99645.91;5083885;27;119679;-75
2022/08/07 00:35:12;;;;;;;6.22;2.30;;;14.40;99.90;;;14.42;100.00;99648.16;5065203;27;119382;-72
2022/08/07 00:37:40;;;;;;;6.78;2.33;;;14.40;99.90;;;14.39;100.00;99652.34;5068277;27;130250;-71
2022/08/07 00:40:10;;;;;;;6.75;2.40;;;14.50;99.90;;;14.47;100.00;99650.69;5050997;27;128522;-74
2022/08/07 00:42:41;;;;;;;5.15;2.15;;;14.50;99.90;;;14.64;100.00;99647.84;5068457;27;119439;-73
2022/08/07 00:45:11;;;;;;;6.13;2.55;;;14.50;99.90;;;14.63;100.00;99654.44;5065684;27;119402;-72
2022/08/07 00:47:40;;;;;;;6.13;2.88;;;14.50;99.90;;;14.66;100.00;99653.78;5051378;27;130008;-71
2022/08/07 00:50:10;;;;;;;4.50;2.45;;;14.60;99.90;;;14.62;100.00;99646.59;5083177;27;129977;-74
2022/08/07 00:52:38;;;;;;;5.93;2.58;;;14.50;99.90;;;14.68;100.00;99646.03;5066758;27;121931;-73
2022/08/07 00:55:08;;;;;;;6.28;2.90;;;14.60;99.90;;;14.58;100.00;99643.69;5064985;27;121697;-74
2022/08/07 00:57:37;;;;;;;7.90;2.78;;;14.60;99.90;;;14.62;100.00;99644.66;5081944;27;130498;-74
2022/08/07 01:00:09;;;;;;;5.07;2.60;;;14.60;99.90;;;14.64;100.00;99639.63;5083100;27;129628;-73
2022/08/07 01:02:39;;;;;;;6.13;2.97;;;14.60;99.90;;;14.60;100.00;99632.41;5083269;27;119464;-73
2022/08/07 01:05:09;;;;;;;7.68;3.00;;;14.60;99.90;;;14.50;100.00;99636.38;5082117;27;119488;-73
2022/08/07 01:07:38;;;;;;;6.90;2.90;;;14.50;99.90;;;14.41;100.00;99636.44;5067566;27;129788;-75
2022/08/07 01:10:09;;;;;;;6.22;3.08;;;14.50;99.90;;;14.49;100.00;99642.94;5082060;27;129103;-75
2022/08/07 01:12:40;;;;;;;7.10;2.75;;;14.60;99.90;;;14.44;100.00;99641.22;5085267;27;118367;-72
2022/08/07 01:15:11;;;;;;;5.72;3.00;;;14.50;99.90;;;14.47;100.00;99646.00;5064745;27;119911;-73
2022/08/07 01:17:40;;;;;;;4.20;2.60;;;14.50;99.90;;;14.52;100.00;99647.75;5063531;27;130259;-73
2022/08/07 01:20:12;;;;;;;6.95;3.00;;;14.50;99.90;;;14.47;100.00;99645.22;5064795;27;129449;-75
2022/08/07 01:22:43;;;;;;;5.72;3.25;;;14.50;99.90;;;14.39;100.00;99644.16;5068174;27;119619;-73
2022/08/07 01:25:12;;;;;;;6.35;2.90;;;14.40;99.90;;;14.35;100.00;99644.03;5064208;27;119410;-76
2022/08/07 01:27:41;;;;;;;7.72;3.20;;;14.40;99.90;;;14.33;100.00;99662.66;5050488;27;130069;-77
2022/08/07 01:30:12;;;;;;;5.18;2.88;;;14.40;99.90;;;14.34;100.00;99650.63;5050514;27;128759;-73
2022/08/07 01:32:41;;;;;;;9.65;3.25;;;14.40;99.90;;;14.28;100.00;99649.22;5050733;27;119231;-74
2022/08/07 01:35:10;;;;;;;5.50;2.78;;;14.40;99.90;;;14.18;100.00;99644.19;5064846;27;120298;-76
2022/08/07 01:37:41;;;;;;;5.22;2.80;;;14.40;99.90;;;14.22;100.00;99638.84;5067302;27;131674;-76
2022/08/07 01:40:13;;;;;;;7.45;2.92;;;14.30;99.90;;;14.26;100.00;99640.56;5066845;27;129450;-76
2022/08/07 01:42:42;;;;;;;6.05;2.78;;;14.30;99.90;;;14.15;100.00;99640.16;5065731;27;121563;-73
2022/08/07 01:45:12;;;;;;;6.75;3.20;;;14.30;99.90;;;14.14;100.00;99637.78;5063939;27;122237;-75
2022/08/07 01:47:41;;;;;;;7.65;2.97;;;14.30;99.90;;;14.02;100.00;99631.13;5080850;27;130185;-74
2022/08/07 01:50:11;;;;;;;7.53;3.00;;;14.20;99.90;;;13.94;100.00;99626.50;5063855;27;129711;-77
2022/08/07 01:52:42;;;;;;;6.43;3.47;;;14.20;99.90;;;14.02;100.00;99642.03;5067102;27;119064;-73
2022/08/07 01:55:14;;;;;;;7.40;3.42;;;14.20;99.90;;;13.89;100.00;99648.50;5067047;27;119269;-74
2022/08/07 01:57:44;;;;;;;5.85;2.70;;;14.10;99.90;;;13.99;100.00;99641.88;5063630;27;129871;-73
2022/08/07 02:00:14;;;;;;;6.72;2.90;;;14.10;99.90;;;14.05;100.00;99645.22;5066996;27;129714;-73
2022/08/07 02:02:50;;;;;;;7.47;3.25;;;14.10;99.90;;;13.94;100.00;99658.44;5064039;27;120089;-72
2022/08/07 02:05:32;;;;;;;10.87;2.83;;;14.00;99.90;;;13.95;100.00;99658.09;5050110;27;118809;-73
2022/08/07 02:08:09;;;;;;;6.35;3.00;;;14.00;99.90;;;13.85;100.00;99647.56;5080815;27;130624;-74
2022/08/07 02:10:42;;;;;;;6.07;2.85;;;13.90;99.90;;;13.66;100.00;99646.09;5066799;27;129142;-71
2022/08/07 02:13:13;;;;;;;7.07;3.42;;;13.90;99.90;;;13.71;100.00;99664.16;5063799;27;120098;-74
2022/08/07 02:15:51;;;;;;;6.60;3.30;;;13.90;99.90;;;13.64;100.00;99656.50;5066950;27;119451;-72
2022/08/07 02:18:22;;;;;;;6.40;3.10;;;13.80;99.90;;;13.58;100.00;99666.00;5063343;27;130080;-72
2022/08/07 02:20:54;;;;;;;6.40;3.15;;;13.80;99.90;;;13.65;100.00;99665.50;5066526;27;128793;-72
2022/08/07 02:23:26;;;;;;;7.22;2.97;;;13.80;99.90;;;13.60;100.00;99666.47;5063588;27;119488;-72
2022/08/07 02:25:57;;;;;;;6.53;3.15;;;13.70;99.90;;;13.59;100.00;99666.81;5082281;27;119936;-73
2022/08/07 02:28:30;;;;;;;7.15;3.55;;;13.60;99.90;;;13.44;100.00;99665.41;5063127;27;130159;-71
2022/08/07 02:31:06;;;;;;;7.95;3.33;;;13.60;99.90;;;13.52;100.00;99667.31;5080250;27;129797;-73
2022/08/07 02:33:38;;;;;;;9.00;3.78;;;13.60;99.90;;;13.42;100.00;99673.13;5047843;27;121715;-74
2022/08/07 02:36:08;;;;;;;12.00;3.67;;;13.50;99.90;;;13.29;100.00;99675.69;5062168;27;121927;-72
2022/08/07 02:38:40;;;;;;;9.05;4.13;;;13.50;99.90;;;13.23;100.00;99671.53;5081404;27;130534;-71
2022/08/07 02:41:10;;;;;;;13.25;4.50;;;13.40;99.90;;;13.37;100.00;99676.00;5049296;27;128961;-73
2022/08/07 02:43:41;;;;;;;7.22;3.30;;;13.50;99.90;;;13.44;100.00;99679.03;5049448;27;119095;-73
2022/08/07 02:46:11;;;;;;;9.70;3.28;;;13.40;99.90;;;13.37;100.00;99681.47;5049525;27;119107;-73
2022/08/07 02:48:40;;;;;;;7.68;3.20;;;13.40;99.90;;;13.29;100.00;99691.22;5066031;27;129601;-72
2022/08/07 02:51:15;;;;;;;8.60;3.35;;;13.40;99.90;;;13.28;100.00;99690.44;5063257;27;129587;-72
2022/08/07 02:53:52;;;;;;;12.88;3.80;;;13.40;99.90;;;13.21;100.00;99681.16;5066328;27;119823;-74
2022/08/07 02:56:25;;;;;;;6.47;3.33;;;13.30;99.90;;;13.25;100.00;99682.91;5064518;27;119801;-70
2022/08/07 02:58:56;;;;;;;7.82;3.42;;;13.40;99.90;;;13.25;100.00;99688.38;5047605;27;129396;-75
2022/08/07 03:01:29;;;;;;;9.02;3.47;;;13.30;99.90;;;13.24;100.00;99677.78;5081079;27;129546;-73
2022/08/07 03:03:58;;;;;;;5.85;3.38;;;13.30;99.90;;;13.22;100.00;99690.94;5081354;27;120498;-72
2022/08/07 03:06:31;;;;;;;5.28;3.38;;;13.30;99.90;;;13.26;100.00;99683.69;5048969;27;118273;-73
2022/08/07 03:09:02;;;;;;;7.75;3.35;;;13.20;99.90;;;13.26;100.00;99687.25;5048822;27;129145;-74
2022/08/07 03:11:33;;;;;;;7.28;3.55;;;13.20;99.90;;;13.19;100.00;99692.38;5048513;27;128416;-74
2022/08/07 03:14:04;;;;;;;9.05;3.30;;;13.10;99.90;;;13.23;100.00;99692.53;5048787;27;119178;-73
2022/08/07 03:16:35;;;;;;;7.85;3.80;;;13.20;99.90;;;13.23;100.00;99698.81;5066408;27;119245;-74
2022/08/07 03:19:05;;;;;;;6.78;3.72;;;13.20;99.90;;;13.18;100.00;99693.50;5062549;27;130481;-74
2022/08/07 03:21:35;;;;;;;8.57;3.85;;;13.10;99.90;;;13.05;100.00;99698.03;5065798;27;129844;-77
2022/08/07 03:24:06;;;;;;;6.30;3.53;;;13.10;99.90;;;13.04;100.00;99701.06;5061207;27;123009;-73
2022/08/07 03:26:36;;;;;;;7.25;3.25;;;13.10;99.90;;;13.14;100.00;99700.75;5065709;27;120596;-72
2022/08/07 03:29:10;;;;;;;7.07;3.65;;;13.10;99.90;;;13.12;100.00;99703.00;5079431;27;129773;-72
2022/08/07 03:31:40;;;;;;;5.75;3.38;;;13.10;99.90;;;12.93;100.00;99706.03;5080605;27;129309;-71
2022/08/07 03:34:11;;;;;;;6.47;3.38;;;13.00;99.90;;;13.04;100.00;99703.78;5081136;27;120215;-73
2022/08/07 03:36:42;;;;;;;9.07;3.67;;;13.00;99.90;;;13.01;100.00;99702.53;5080920;27;119743;-74
2022/08/07 03:39:15;;;;;;;11.15;3.88;;;13.00;99.90;;;13.16;100.00;99703.94;5082772;27;130048;-72
2022/08/07 03:41:44;;;;;;;7.57;3.47;;;13.10;99.90;;;13.05;100.00;99702.69;5080882;27;129664;-73
2022/08/07 03:44:14;;;;;;;6.88;3.38;;;13.00;99.90;;;13.01;100.00;99705.25;5048833;27;119078;-73
2022/08/07 03:46:43;;;;;;;6.28;3.20;;;13.00;99.90;;;13.03;100.00;99700.28;5081908;27;119498;-73
2022/08/07 03:49:12;;;;;;;10.52;3.13;;;13.00;99.90;;;13.06;100.00;99707.00;5064056;27;130067;-71
2022/08/07 03:51:44;;;;;;;8.75;4.43;;;13.00;99.90;;;13.15;100.00;99706.97;5065478;27;129556;-74
2022/08/07 03:54:14;;;;;;;6.53;3.38;;;13.00;99.90;;;13.19;100.00;99708.72;5084365;27;119726;-75
2022/08/07 03:56:44;;;;;;;7.63;3.78;;;13.10;99.90;;;13.24;100.00;99710.50;5086050;27;119348;-75
2022/08/07 03:59:15;;;;;;;8.30;3.53;;;13.10;99.90;;;13.25;100.00;99707.44;5065499;27;130122;-71
2022/08/07 04:01:47;;;;;;;6.63;3.45;;;13.10;99.90;;;13.50;100.00;99712.38;5051720;27;128227;-73
2022/08/07 04:04:20;;;;;;;6.75;3.03;;;13.20;99.90;;;13.53;100.00;99709.81;5083949;27;119477;-73
2022/08/07 04:06:54;;;;;;;5.93;3.13;;;13.20;99.90;;;13.50;100.00;99713.19;5069433;27;118618;-71
2022/08/07 04:09:29;;;;;;;7.18;2.92;;;13.20;99.90;;;13.50;100.00;99706.94;5051315;27;128749;-75
2022/08/07 04:12:00;;;;;;;10.77;3.83;;;13.20;99.90;;;13.54;100.00;99714.13;5082329;27;129777;-72
2022/08/07 04:14:29;;;;;;;8.73;3.25;;;13.20;99.90;;;13.44;100.00;99709.03;5050445;27;121258;-73
2022/08/07 04:16:58;;;;;;;5.43;3.17;;;13.20;99.90;;;13.40;100.00;99719.78;5083417;27;121985;-71
2022/08/07 04:19:27;;;;;;;5.95;3.50;;;13.20;99.90;;;13.37;100.00;99719.63;5051411;27;128742;-73
2022/08/07 04:21:57;;;;;;;9.70;3.30;;;13.20;99.90;;;13.60;100.00;99712.03;5068395;27;128918;-73
2022/08/07 04:24:28;;;;;;;6.20;3.10;;;13.40;99.90;;;13.74;100.00;99717.25;5051329;27;119243;-73
2022/08/07 04:26:58;;;;;;;4.38;2.90;;;13.40;99.90;;;13.65;100.00;99726.28;5065560;27;119494;-73
2022/08/07 04:29:27;;;;;;;6.75;2.72;;;13.40;99.90;;;13.61;100.00;99724.53;5064968;27;129991;-74
2022/08/07 04:31:56;;;;;;;6.70;3.20;;;13.50;99.90;;;13.61;100.00;99741.69;5084005;27;130208;-74
2022/08/07 04:34:25;;;;;;;7.18;3.25;;;13.40;99.90;;;13.73;100.00;99743.75;5051191;27;119165;-74
2022/08/07 04:36:54;;;;;;;7.30;2.97;;;13.50;99.90;;;13.84;100.00;99741.47;5064839;27;119415;-73
2022/08/07 04:39:23;;;;;;;5.70;2.67;;;13.50;99.90;;;14.17;100.00;99740.81;5049944;27;129064;-74
2022/08/07 04:41:53;;;;;;;7.30;2.58;;;13.60;99.90;;;14.41;100.00;99737.44;5081956;27;129424;-75
2022/08/07 04:44:23;;;;;;;6.05;2.53;;;13.80;99.90;;;14.34;100.00;99746.16;5067310;27;119168;-72
2022/08/07 04:47:03;;;;;;;6.47;2.50;;;13.80;99.90;;;14.44;100.00;99744.19;5068503;27;119197;-77
2022/08/07 04:49:44;;;;;;;4.20;2.03;;;14.00;99.90;;;14.34;100.00;99742.66;5067798;27;130125;-71
2022/08/07 04:52:22;;;;;;;5.35;2.45;;;14.00;99.90;;;14.21;100.00;99741.78;5064710;27;129361;-74
2022/08/07 04:55:01;;;;;;;9.88;2.47;;;13.90;99.90;;;14.38;100.00;99744.38;5051355;27;119035;-70
2022/08/07 04:57:42;;;;;;;6.53;2.28;;;14.10;99.90;;;14.58;100.00;99747.47;5068979;27;119520;-72
2022/08/07 05:00:18;;;;;;;7.32;2.15;;;14.20;99.90;;;14.95;100.00;99741.44;5087966;27;104974;-74
2022/08/07 05:02:59;;;;;;;5.38;2.60;;;14.40;99.90;;;15.29;100.00;99751.25;5064551;27;129748;-73
2022/08/07 05:05:35;;;;;;;5.32;2.35;;;14.50;99.90;;;15.15;100.00;99750.75;5049540;27;122215;-73
2022/08/07 05:08:12;;;;;;;5.68;2.40;;;14.60;99.90;;;14.99;100.00;99756.00;5050910;27;121270;-73
2022/08/07 05:10:47;;;;;;;5.95;2.15;;;14.40;99.90;;;14.97;100.00;99761.81;5067722;27;130354;-73
2022/08/07 05:13:27;;;;;;;7.85;2.03;;;14.60;99.90;;;15.15;100.00;99765.19;5064182;27;130640;-72
2022/08/07 05:15:58;;;;;;;4.88;2.10;;;14.70;99.90;;;15.30;100.00;99758.28;5067822;27;119341;-75
2022/08/07 05:18:30;;;;;;;5.50;2.15;;;14.80;99.90;;;15.01;100.00;99765.47;5064679;27;119647;-73
2022/08/07 05:21:05;;;;;;;5.25;2.47;;;14.70;99.90;;;14.93;100.00;99771.81;5064178;27;129797;-73
2022/08/07 05:23:41;;;;;;;5.50;2.10;;;14.70;99.90;;;15.06;100.00;99767.22;5085147;27;129779;-73
2022/08/07 05:26:17;;;;;;;3.85;2.10;;;14.70;99.90;;;15.30;100.00;99771.16;5050645;27;119130;-72
2022/08/07 05:28:53;;;;;;;4.23;2.00;;;15.00;99.90;;;15.28;100.00;99769.56;5050515;27;118248;-76
2022/08/07 05:31:29;;;;;;;3.17;1.67;;;15.00;99.90;;;15.40;100.00;99778.97;5062940;27;130045;-73
2022/08/07 05:33:59;;;;;;;6.40;1.98;;;15.10;99.90;;;15.73;98.92;99776.19;5067663;27;128955;-75
2022/08/07 05:36:30;;;;;;;11.00;1.83;;;15.30;99.90;;;15.57;97.76;99776.03;5064502;27;119428;-74
2022/08/07 05:39:00;;;;;;;3.53;1.80;;;15.20;99.90;;;15.62;97.47;99780.50;5067231;27;118734;-74
2022/08/07 05:41:30;;;;;;;2.72;1.63;;;15.10;99.90;;;15.57;96.66;99783.47;5063373;27;129959;-71
2022/08/07 05:44:01;;;;;;;7.10;1.80;;;15.20;99.90;;;15.55;97.74;99782.97;5067175;27;129323;-72
2022/08/07 05:46:31;;;;;;;5.05;1.80;;;15.30;99.90;;;16.02;95.74;99779.09;5063847;27;119588;-74
2022/08/07 05:49:00;;;;;;;5.72;1.95;;;15.60;99.90;;;16.08;95.26;99781.28;5080907;27;119266;-74
2022/08/07 05:51:34;;;;;;;4.30;1.73;;;15.60;99.90;;;16.49;93.95;99778.66;5061734;27;129734;-72
2022/08/07 05:54:03;;;;;;;5.40;1.90;;;15.90;99.90;;;16.81;90.82;99781.53;5080200;27;129520;-74
2022/08/07 05:56:34;;;;;;;4.20;1.35;;;16.00;99.90;;;16.89;91.05;99786.94;5081074;27;122532;-74
2022/08/07 05:59:08;;;;;;;6.00;2.22;;;16.10;99.90;;;16.78;89.62;99795.94;5081467;27;122478;-73
2022/08/07 06:01:40;;;;;;;3.38;1.45;;;16.00;99.90;;;16.99;88.05;99787.59;5066932;27;130972;-73
2022/08/07 06:04:11;;;;;;;4.53;2.03;;;16.30;99.90;;;16.87;89.71;99796.63;5063580;27;129484;-72
2022/08/07 06:06:43;;;;;;;4.57;1.50;;;16.30;99.90;;;17.34;83.86;99789.72;5067115;27;119253;-71
2022/08/07 06:09:14;;;;;;;4.88;1.65;;;16.10;99.90;;;17.02;88.30;99797.84;5063548;27;119664;-72
2022/08/07 06:11:47;;;;;;;8.10;1.50;;;16.30;99.90;;;16.97;84.64;99800.81;5063398;27;129740;-74
2022/08/07 06:14:19;;;;;;;3.55;1.30;;;16.30;99.90;;;16.89;86.54;99792.41;5049743;27;128344;-75
2022/08/07 06:16:51;;;;;;;2.92;1.40;;;16.30;99.90;;;17.08;85.44;99791.00;5082401;27;119893;-75
2022/08/07 06:19:22;;;;;;;6.40;2.22;;;16.50;99.90;;;17.14;85.58;99795.09;5049885;27;118823;-76
2022/08/07 06:21:51;;;;;;;3.80;1.50;;;16.60;99.90;;;17.17;81.31;99796.31;5061898;27;130609;-71
2022/08/07 06:24:20;;;;;;;4.35;1.60;;;16.60;92.50;;;17.29;82.88;99795.47;5066629;27;129344;-76
2022/08/07 06:26:48;;;;;;;4.82;1.40;;;16.60;99.90;;;17.22;81.82;99810.59;5049546;27;119235;-75
2022/08/07 06:29:19;;;;;;;4.78;1.80;;;16.70;92.50;;;17.38;81.60;99809.84;5066612;27;118778;-75
2022/08/07 06:31:49;;;;;;;3.90;1.52;;;16.70;95.90;;;17.01;81.70;99809.97;5063042;27;129833;-74
2022/08/07 06:34:18;;;;;;;3.30;1.30;;;16.60;92.50;;;17.31;79.62;99806.88;5066466;27;129571;-74
2022/08/07 06:36:46;;;;;;;4.60;1.40;;;16.80;81.20;;;17.53;81.16;99814.56;5063392;27;119550;-76
2022/08/07 06:39:15;;;;;;;3.67;1.40;;;17.00;90.50;;;17.56;77.07;99810.31;5067104;27;118973;-73
2022/08/07 06:41:49;;;;;;;3.47;1.30;;;17.00;60.30;;;17.39;77.84;99814.16;5063519;27;129938;-73
2022/08/07 06:44:21;;;;;;;4.72;1.48;;;16.80;67.70;;;17.72;74.29;99799.38;5081446;27;129894;-74
2022/08/07 06:46:50;;;;;;;3.10;1.13;;;17.10;43.40;;;17.58;75.06;99803.31;5062269;27;122114;-73
2022/08/07 06:49:19;;;;;;;2.75;1.20;;;17.10;42.60;;;17.85;73.16;99803.63;5060936;27;121964;-72
2022/08/07 06:51:49;;;;;;;5.13;1.30;;;17.30;33.20;;;17.84;70.75;99807.53;5072315;27;130227;-69
2022/08/07 06:54:19;;;;;;;4.32;1.45;;;17.30;13.00;;;18.01;70.41;99813.84;5027696;27;128981;-70
2022/08/07 06:56:49;;;;;;;5.35;1.10;;;17.30;21.50;;;18.32;68.37;99805.63;5077148;27;119691;-71
2022/08/07 06:59:35;;;;;;;4.72;1.40;;;17.50;7.20;;;18.20;69.34;99802.97;5037388;27;118473;-75
2022/08/07 07:02:13;;;;;;;2.78;1.23;;;17.60;10.20;;;18.26;69.72;99807.03;5027142;27;129404;-74
2022/08/07 07:04:42;;;;;;;5.95;1.48;;;17.60;13.20;;;18.14;70.56;99802.44;5059898;27;129491;-73
2022/08/07 07:07:11;;;;;;;4.07;1.50;;;17.50;16.20;;;18.49;67.94;99809.13;5045000;27;119152;-75
2022/08/07 07:09:46;;;;;;;2.85;1.10;;;17.70;5.00;;;18.60;69.20;99801.13;5060318;27;119317;-75
2022/08/07 07:12:35;;;;;;;3.97;1.90;;;18.00;7.80;;;18.88;68.52;99803.72;5025844;27;128864;-75
2022/08/07 07:15:13;;;;;;;5.25;1.55;;;18.20;4.90;;;18.53;69.68;99812.75;5027571;27;129682;-73
2022/08/07 07:18:04;;;;;;;4.65;1.50;;;17.90;10.70;;;18.67;68.74;99809.53;5059999;27;119853;-71
2022/08/07 07:20:44;;;;;;;2.22;1.23;;;18.00;8.40;;;18.67;65.27;99810.31;5072682;27;119457;-75
2022/08/07 07:23:13;;;;;;;4.03;1.40;;;18.00;1.00;;;18.42;66.52;99814.47;5079114;27;130395;-73
2022/08/07 07:25:45;;;;;;;3.45;1.10;;;17.80;1.00;;;18.13;65.08;99819.25;5063699;27;129515;-72
2022/08/07 07:28:20;;;;;;;3.58;1.38;;;17.60;1.00;;;18.23;66.73;99802.25;5060000;27;119744;-78
2022/08/07 07:30:57;;;;;;;2.38;1.00;;;17.80;1.00;;;18.46;65.20;99815.31;5058774;27;119438;-74
2022/08/07 07:33:28;;;;;;;4.20;1.33;;;17.90;1.00;;;18.60;65.88;99810.16;5040566;27;129895;-74
2022/08/07 07:35:59;;;;;;;4.60;1.50;;;18.10;1.00;;;18.76;62.14;99817.56;5059636;27;129541;-75
2022/08/07 07:38:28;;;;;;;5.50;1.17;;;18.20;1.00;;;18.76;63.39;99806.56;5040391;27;122042;-73
2022/08/07 07:41:03;;;;;;;4.82;1.52;;;18.00;1.00;;;18.75;63.65;99810.50;5058876;27;121729;-76
2022/08/07 07:43:34;;;;;;;2.80;1.25;;;18.10;1.00;;;18.95;63.19;99814.09;5058906;27;130171;-75
2022/08/07 07:46:07;;;;;;;3.97;1.50;;;18.20;1.00;;;19.22;60.30;99823.28;5060057;27;129618;-75
2022/08/07 07:48:37;;;;;;;5.68;1.08;;;18.60;1.00;;;19.17;59.36;99826.34;5045264;27;120269;-75
2022/08/07 07:51:07;;;;;;;4.00;1.00;;;18.40;1.00;;;18.75;60.11;99818.75;5060098;27;119539;-73
2022/08/07 07:53:41;;;;;;;2.65;1.00;;;18.00;1.00;;;19.19;61.08;99824.03;5059843;27;130686;-73
2022/08/07 07:56:10;;;;;;;3.10;1.33;;;18.50;1.00;;;19.04;58.37;99823.72;5061385;27;129605;-74
2022/08/07 07:58:41;;;;;;;4.80;1.38;;;18.40;1.00;;;19.19;60.31;99829.53;5060439;27;120243;-71
2022/08/07 08:01:13;;;;;;;5.13;1.25;;;18.60;1.00;;;19.47;60.71;99817.50;5058950;27;119636;-73
2022/08/07 08:03:43;;;;;;;3.38;1.20;;;18.90;1.00;;;19.48;57.36;99827.34;5056467;27;129917;-72
2022/08/07 08:06:13;;;;;;;2.65;1.10;;;18.80;1.00;;;19.54;57.00;99815.69;5057696;27;130439;-73
2022/08/07 08:08:45;;;;;;;3.97;1.30;;;18.70;1.00;;;19.20;59.83;99820.91;5042889;27;118267;-72
2022/08/07 08:11:14;;;;;;;3.00;1.05;;;18.60;1.00;;;19.31;60.31;99815.63;5058237;27;119717;-74
2022/08/07 08:13:45;;;;;;;3.28;1.13;;;18.40;1.00;;;19.39;62.19;99806.34;5059543;27;129866;-76
2022/08/07 08:16:19;;;;;;;5.03;1.25;;;18.50;1.00;;;19.43;61.20;99816.63;5043827;27;129018;-73
2022/08/07 08:18:53;;;;;;;3.65;1.30;;;18.60;1.00;;;19.22;57.85;99823.28;5060148;27;119671;-72
2022/08/07 08:27:04;;;;;;;3.50;1.23;;;18.30;1.00;;;19.18;58.79;99822.41;5044584;27;129402;-73
2022/08/07 08:29:41;;;;;;;2.25;0.98;;;18.50;1.00;;;19.42;56.57;99828.81;5059086;27;122848;-76
2022/08/07 08:32:11;;;;;;;;;;;18.70;1.00;;;19.43;57.81;99827.63;5028742;27;121487;-74
2022/08/07 08:34:44;;;;;;;5.85;1.30;;;18.80;1.00;;;19.82;58.88;99827.59;5061833;27;130023;-74
2022/08/07 08:37:15;;;;;;;4.15;1.23;;;19.20;1.00;;;19.94;56.78;99830.19;5063032;27;129925;-74
2022/08/07 08:39:45;;;;;;;3.17;1.00;;;19.20;1.00;;;19.78;55.67;99826.75;5063059;27;119561;-75
2022/08/07 08:42:25;;;;;;;2.72;0.90;;;19.10;1.00;;;20.09;55.35;99832.00;5031355;27;118438;-73
2022/08/07 08:45:06;;;;;;;3.83;1.40;;;19.30;1.00;;;19.84;55.74;99837.09;5044750;27;129856;-75
2022/08/07 08:47:45;;;;;;;2.50;0.98;;;18.90;1.00;;;19.77;55.83;99830.66;5063321;27;129700;-76
2022/08/07 08:50:23;;;;;;;5.80;1.17;;;19.00;1.00;;;19.93;55.94;99823.09;5048030;27;120703;-75
2022/08/07 08:53:02;;;;;;;3.25;1.10;;;19.20;1.00;;;20.36;56.07;99834.03;5062907;27;119659;-77
2022/08/07 08:55:37;;;;;;;1.83;0.73;;;19.50;1.00;;;20.35;54.50;99830.47;5060915;27;130029;-77
2022/08/07 08:58:12;;;;;;;2.97;0.95;;;19.50;1.00;;;20.21;53.99;99828.28;5044241;27;129576;-73
2022/08/07 09:00:48;;;;;;;3.67;0.80;;;19.30;1.00;;;20.24;54.78;99832.25;5063058;27;120079;-73
2022/08/07 09:03:26;;;;;;;4.07;0.97;;;19.30;1.00;;;19.97;55.62;99831.41;5062738;27;119874;-72
2022/08/07 09:06:01;;;;;;;2.78;1.40;;;19.10;1.00;;;19.78;57.40;99832.25;5062345;27;130529;-77
2022/08/07 09:08:45;;;;;;;4.60;1.45;;;19.00;1.00;;;19.98;58.90;99825.53;5043917;27;129349;-76
2022/08/07 09:11:20;;;;;;;2.40;0.85;;;19.50;1.00;;;20.22;56.21;99831.81;5062651;27;119767;-73
2022/08/07 09:14:04;;;;;;;3.13;1.10;;;19.60;1.00;;;20.13;52.23;99831.28;5062870;27;119522;-72
2022/08/07 09:16:54;;;;;;;1.35;0.90;;;19.50;1.00;;;20.23;53.33;99831.47;5062563;27;130011;-73
2022/08/07 09:19:46;;;;;;;2.28;1.20;;;19.40;1.00;;;20.25;54.88;99822.81;5062637;27;129451;-75
2022/08/07 09:22:47;;;;;;;1.60;0.82;;;19.40;1.00;;;20.78;53.22;99822.06;5046375;27;121510;-77
2022/08/07 09:25:25;;;;;;;3.78;1.00;;;19.70;1.00;;;20.68;54.55;99819.94;5047680;27;120893;-76
2022/08/07 09:28:03;;;;;;;3.75;1.20;;;19.90;1.00;;;20.64;53.89;99817.13;5062137;27;129866;-74
2022/08/07 09:30:56;;;;;;;5.20;1.30;;;19.80;1.00;;;20.70;53.85;99826.69;5043825;27;129943;-74
2022/08/07 09:33:44;;;;;;;3.50;1.23;;;19.90;1.00;;;20.41;52.65;99825.44;5046996;27;118581;-73
2022/08/07 09:36:22;;;;;;;2.65;1.00;;;19.70;1.00;;;20.73;53.20;99842.50;5062280;27;119731;-75
2022/08/07 09:39:06;;;;;;;3.05;0.98;;;19.90;1.00;;;20.72;51.45;99832.63;5065209;27;131294;-74
2022/08/07 09:41:41;;;;;;;4.10;1.10;;;19.80;1.00;;;20.34;54.23;99837.16;5062064;27;129381;-73
2022/08/07 09:44:22;;;;;;;2.67;1.05;;;19.50;1.00;;;20.65;54.89;99829.78;5061733;27;119940;-73
2022/08/07 09:47:09;;;;;;;2.95;1.25;;;19.80;1.00;;;20.92;53.72;99824.22;5046547;27;120896;-74
2022/08/07 09:49:57;;;;;;;5.78;1.52;;;20.00;1.00;;;20.83;54.36;99822.56;5060724;27;130178;-75
2022/08/07 09:52:40;;;;;;;3.88;1.10;;;20.20;1.00;;;20.81;54.16;99827.63;5061885;27;129677;-73
2022/08/07 09:55:16;;;;;;;2.38;1.10;;;20.00;1.00;;;20.86;52.45;99814.69;5047312;27;118769;-74
2022/08/07 09:58:25;;;;;;;4.40;1.20;;;20.10;1.00;;;20.85;53.17;99822.19;5046505;27;118278;-71
2022/08/07 10:01:09;;;;;;;4.68;1.30;;;19.90;1.00;;;20.55;54.68;99819.34;5046133;27;128695;-73
2022/08/07 10:04:04;;;;;;;3.97;1.40;;;19.80;1.00;;;20.91;54.82;99817.94;5061673;27;129447;-78
2022/08/07 10:06:59;;;;;;;3.97;1.27;;;20.20;1.00;;;21.29;51.80;99824.31;5061780;27;119593;-72
2022/08/07 10:09:50;;;;;;;6.22;1.15;;;20.60;1.00;;;20.82;52.78;99817.41;5062234;27;119285;-75
2022/08/07 10:12:48;;;;;;;3.03;0.90;;;19.90;1.00;;;20.91;52.38;99819.88;5061506;27;130026;-74
2022/08/07 10:15:54;;;;;;;2.30;1.15;;;20.10;1.00;;;20.83;51.63;99825.31;5061291;27;129509;-75
2022/08/07 10:18:58;;;;;;;3.75;1.10;;;20.10;1.00;;;21.33;52.52;99813.28;5038698;27;121422;-76
2022/08/07 10:21:40;;;;;;;4.03;1.20;;;20.50;1.00;;;21.08;53.52;99819.28;5029791;27;121206;-72
2022/08/07 10:24:44;;;;;;;4.55;1.15;;;20.30;1.00;;;20.99;51.91;99816.84;5061189;27;129911;-75
2022/08/07 10:27:33;;;;;;;4.70;1.23;;;20.00;1.00;;;21.30;51.45;99808.53;5060782;27;129563;-73
2022/08/07 10:30:08;;;;;;;2.75;1.05;;;20.10;1.00;;;21.97;49.93;99801.34;5061398;27;119511;-77
2022/08/07 10:33:16;;;;;;;3.13;1.00;;;20.60;1.00;;;21.76;48.64;99813.78;5061369;27;119562;-77
2022/08/07 10:36:11;;;;;;;2.92;0.88;;;20.80;1.00;;;21.70;49.84;99809.78;5061231;27;130048;-75
2022/08/07 10:38:51;;;;;;;2.20;0.77;;;20.80;1.00;;;22.10;48.66;99816.47;5046302;27;128373;-75
2022/08/07 10:41:33;;;;;;;2.72;1.15;;;21.00;1.00;;;21.82;49.42;99817.78;5061149;27;119379;-75
2022/08/07 10:44:14;;;;;;;4.90;1.33;;;20.50;1.00;;;22.01;50.34;99810.47;5061096;27;119147;-74